WEATHER DATA

YESTERDAY
Time Temp. Dewp. Hum. Wind dir Wind speed Wind gust Bar. 1h Prec. 24h Prec.
00:01 10.7 9.5 92 270 3.1 5 1010.1 0.3520 0.0000
00:11 10.7 9.5 92 262 3.1 4.7 1010.1 0.1760 0.0000
00:21 10.7 9.5 92 260 3.1 6.1 1010 0.1760 0.0000
00:32 10.8 9.7 93 259 2.8 4.2 1009.9 0.1760 0.0000
00:42 10.8 9.6 92 270 3.3 6.1 1009.9 0.0000 0.0000
00:51 10.8 9.7 93 265 3.1 4.7 1010.1 0.0000 0.0000
01:02 10.8 9.7 93 263 3.1 4.7 1010.2 0.0000 0.0000
01:12 10.8 9.7 93 259 3.3 4.4 1010.1 0.0000 0.0000
01:22 10.8 9.7 93 264 3.3 5.8 1010.3 0.0000 0.0000
01:32 10.8 9.7 93 261 3.1 5 1010.3 0.0000 0.0000
01:42 10.8 9.7 93 265 3.3 4.7 1010.2 0.0000 0.0000
01:52 10.8 9.6 92 267 3.3 5.8 1010.1 0.0000 0.0000
02:02 10.7 9.5 92 270 3.3 6.4 1010.2 0.0000 0.0000
02:13 10.6 9.2 91 266 3.3 5 1010.2 0.0000 0.0000
02:23 10.5 9.1 91 265 2.8 5.6 1010.2 0.0000 0.0000
02:32 10.4 9 91 263 3.1 4.4 1010.2 0.0000 0.0000
02:42 10.4 8.8 90 252 2.8 4.2 1010.1 0.0000 0.0000
02:53 10.3 8.7 90 270 2.8 4.4 1009.9 0.0000 0.0000
03:03 10.3 8.7 90 263 3.3 5.3 1010.1 0.0000 0.0000
03:13 10.2 8.6 90 264 3.1 4.7 1010.2 0.0000 0.0000
03:23 10.2 8.6 90 263 2.8 4.7 1010.1 0.0000 0.0000
03:33 10.1 8.5 90 262 3.1 5.3 1010 0.0000 0.0000
03:43 10.1 8.5 90 253 2.8 4.4 1010 0.0000 0.0000
03:53 10 8.4 90 258 2.8 4.2 1010 0.0000 0.0000
04:04 10 8.4 90 265 3.1 4.7 1010.1 0.0000 0.0000
04:13 10 8.4 90 262 3.1 4.2 1010 0.0000 0.0000
04:23 9.9 8.3 90 263 2.8 4.2 1009.8 0.0000 0.0000
04:33 9.8 8.2 90 259 2.8 4.2 1009.9 0.0000 0.0000
04:44 9.7 8.1 90 258 2.8 3.9 1010 0.0000 0.0000
04:54 9.5 8.1 91 255 2.8 4.2 1009.9 0.0000 0.0000
05:03 9.4 8 91 258 2.8 3.9 1009.9 0.0000 0.0000
05:14 9.3 7.9 91 253 2.5 3.6 1010 0.0000 0.0000
05:24 9.3 7.9 91 253 2.5 3.9 1010 0.0000 0.0000
05:34 9.2 7.8 91 248 2.5 3.6 1009.8 0.0000 0.0000
05:44 9.1 7.7 91 251 1.9 3.3 1010 0.0000 0.0000
05:54 9 7.8 92 248 2.8 3.9 1010.3 0.0000 0.0000
06:04 9 7.8 92 239 2.5 3.9 1010.2 0.0000 0.0000
06:14 9.1 7.9 92 239 2.5 3.6 1010.3 0.0000 0.0000
06:25 9.3 8.2 93 242 2.8 4.2 1010.3 0.0000 0.0000
06:35 9.3 8.2 93 246 2.5 4.2 1010.5 0.0000 0.0000
06:44 9.3 8.1 92 253 2.8 4.2 1010.5 0.0000 0.0000
06:54 9.4 8.2 92 254 2.5 3.6 1010.5 0.0000 0.0000
07:05 9.5 8.3 92 252 2.5 3.9 1010.6 0.0000 0.0000
07:15 9.5 8.3 92 252 2.5 3.9 1010.7 0.0000 0.0000
07:25 9.6 8.4 92 247 2.2 3.9 1010.6 0.0000 0.0000
07:35 9.7 8.5 92 252 2.5 3.9 1010.5 0.0000 0.0000
07:45 9.7 8.5 92 258 2.5 4.2 1010.7 0.0000 0.0000
07:55 9.8 8.6 92 259 2.5 3.9 1010.8 0.0000 0.0000
08:05 9.9 8.7 92 270 2.5 4.2 1010.6 0.0000 0.0000
08:16 10 8.8 92 270 2.5 4.2 1010.7 0.0000 0.0000
08:25 10 8.6 91 270 2.5 4.2 1010.6 0.0000 0.0000
08:35 10.1 8.7 91 270 2.5 4.2 1010.7 0.0000 0.0000
08:46 10.4 9 91 277 2.5 4.4 1010.7 0.0000 0.0000
08:56 10.6 9 90 287 2.5 4.4 1010.7 0.0000 0.0000
09:06 10.9 9.2 89 322 2.8 4.4 1010.8 0.0000 0.0000
09:15 11.1 9.2 88 282 2.5 4.4 1010.7 0.0000 0.0000
09:26 11.3 9.2 87 291 3.3 6.4 1010.8 0.0000 0.0000
09:36 11.6 9.3 86 270 1.9 3.6 1010.7 0.0000 0.0000
09:46 11.9 9.5 85 289 2.8 4.7 1010.7 0.0000 0.0000
09:56 12.2 9.4 83 275 2.8 5.3 1010.8 0.0000 0.0000
10:06 12.4 9.4 82 285 2.8 5.3 1010.9 0.0000 0.0000
10:16 12.5 9 79 283 2.8 5 1011 0.0000 0.0000
10:26 12.6 9.2 80 279 2.2 4.7 1010.9 0.0000 0.0000
10:37 12.9 9.4 79 270 2.2 3.9 1010.9 0.0000 0.0000
10:47 12.9 9.2 78 282 2.8 5.3 1011.1 0.0000 0.0000
10:56 12.9 9 77 302 3.3 6.1 1011.1 0.0000 0.0000
11:06 13 8.9 76 280 3.1 5 1010.9 0.0000 0.0000
11:17 13.1 9 76 285 3.3 5.8 1011 0.0000 0.0000
11:27 13.2 8.9 75 285 3.3 5.3 1011 0.0000 0.0000
11:37 13.5 8.8 73 287 2.8 4.7 1010.8 0.0000 0.0000
11:48 13.6 8.9 73 282 3.3 5 1010.9 0.0000 0.0000
11:57 13.7 9 73 285 3.3 7.2 1010.9 0.0000 0.0000
12:07 14.2 9.4 73 287 3.1 5.6 1010.8 0.0000 0.0000
12:17 14.5 9.3 71 280 2.5 4.7 1010.9 0.0000 0.0000
12:28 14.3 9.1 71 277 3.3 6.4 1010.9 0.0000 0.0000
12:38 14.2 9 71 285 2.8 4.2 1010.8 0.0000 0.0000
12:47 14.2 9 71 280 2.8 5 1010.8 0.0000 0.0000
12:58 14.1 8.5 69 283 2.2 3.6 1010.9 0.0000 0.0000
13:08 14 8.4 69 294 2.2 3.6 1010.8 0.0000 0.0000
13:18 14.2 8.8 70 280 1.7 3.3 1010.8 0.0000 0.0000
13:28 14.4 8.6 68 336 2.2 3.9 1010.8 0.0000 0.0000
13:38 14.4 8.6 68 299 3.3 5 1010.8 0.0000 0.0000
13:48 14.5 8.7 68 321 2.2 3.6 1010.7 0.0000 0.0000
13:58 14.5 8.7 68 261 1.9 4.4 1010.8 0.0000 0.0000
14:08 14.6 8.8 68 296 2.8 5 1010.8 0.0000 0.0000
14:19 14.4 8.6 68 292 3.1 5.6 1010.8 0.0000 0.0000
14:28 14.5 8.7 68 276 2.8 5 1010.9 0.0000 0.0000
14:38 14.6 9 69 339 2.5 3.9 1010.8 0.0000 0.0000
14:49 14.6 9 69 294 2.8 4.4 1010.7 0.0000 0.0000
14:59 14.5 8.7 68 294 2.8 4.4 1010.7 0.0000 0.0000
15:09 14.5 8.9 69 276 2.5 5.6 1010.7 0.0000 0.0000
15:19 14.6 9 69 277 2.5 5 1010.6 0.0000 0.0000
15:29 14.7 9.3 70 311 2.2 3.6 1010.6 0.0000 0.0000
15:39 14.6 9 69 277 3.1 5.3 1010.7 0.0000 0.0000
15:49 14.5 8.9 69 283 3.3 5.6 1010.6 0.0000 0.0000
16:00 14.3 8.7 69 286 3.6 6.1 1010.5 0.0000 0.0000
16:09 14 8.6 70 286 3.1 5.3 1010.5 0.0000 0.0000
16:19 13.8 8.6 71 289 2.8 6.1 1010.6 0.0000 0.0000
16:29 13.7 8.7 72 291 3.1 4.4 1010.7 0.0000 0.0000
16:40 13.6 8.9 73 298 2.8 5.3 1010.7 0.0000 0.0000
16:50 13.5 8.8 73 278 2.8 4.7 1010.5 0.0000 0.0000
16:59 13.5 9 74 279 2.8 4.7 1010.6 0.0000 0.0000
17:10 13.5 9 74 270 2.5 3.6 1010.6 0.0000 0.0000
17:20 13.3 8.8 74 280 2.8 5 1010.6 0.0000 0.0000
17:30 13.3 9 75 270 2.2 4.7 1010.5 0.0000 0.0000
17:40 13.2 8.9 75 276 2.8 4.7 1010.6 0.0000 0.0000
17:50 13.1 8.8 75 270 2.5 3.9 1010.5 0.0000 0.0000
18:00 13 8.7 75 276 2.8 4.7 1010.5 0.0000 0.0000
18:10 12.9 8.8 76 274 2.8 3.9 1010.6 0.0000 0.0000
18:21 12.9 8.8 76 275 2.5 4.2 1010.4 0.0000 0.0000
18:31 12.8 8.9 77 270 2.2 3.3 1010.4 0.0000 0.0000
18:40 12.7 8.8 77 270 2.5 3.6 1010.5 0.0000 0.0000
18:50 12.7 9 78 274 2.8 4.7 1010.5 0.0000 0.0000
19:01 12.6 9.1 79 274 2.8 5 1010.6 0.0000 0.0000
19:11 12.5 9 79 270 2.5 3.6 1010.5 0.0000 0.0000
19:21 12.4 8.9 79 274 2.5 4.4 1010.4 0.0000 0.0000
19:31 12.3 9 80 276 2.5 3.6 1010.4 0.0000 0.0000
19:41 12.1 8.8 80 274 2.5 4.4 1010.5 0.0000 0.0000
19:51 11.9 8.6 80 276 2.2 3.9 1010.6 0.0000 0.0000
20:01 11.7 8.4 80 276 2.5 4.2 1010.7 0.0000 0.0000
20:12 11.5 8.2 80 270 2.2 3.6 1010.9 0.0000 0.0000
20:21 11.4 8.1 80 277 2.5 4.4 1010.8 0.0000 0.0000
20:31 11.3 8 80 265 1.9 3.3 1010.9 0.0000 0.0000
20:41 11.1 7.8 80 266 2.2 4.2 1011 0.0000 0.0000
20:52 10.8 7.5 80 270 2.2 3.3 1011 0.0000 0.0000
21:02 10.6 7.3 80 265 1.9 3.3 1011 0.0000 0.0000
21:12 10.4 7.3 81 260 1.9 3.6 1011 0.0000 0.0000
21:22 10.3 7.2 81 262 1.9 3.6 1011.1 0.0000 0.0000
21:32 10.1 7.2 82 258 1.7 3.1 1011.1 0.0000 0.0000
21:42 9.9 7 82 258 1.9 3.3 1011.2 0.0000 0.0000
21:52 9.7 7 83 260 1.9 3.6 1011.3 0.0000 0.0000
22:03 9.6 7 84 259 1.9 3.9 1011.3 0.0000 0.0000
22:12 9.4 6.8 84 259 1.7 3.1 1011.3 0.0000 0.0000
22:22 9.3 6.7 84 249 1.7 3.3 1011.4 0.0000 0.0000
22:33 9.1 6.7 85 255 1.9 3.6 1011.3 0.0000 0.0000
22:43 9 6.6 85 255 1.9 3.3 1011.4 0.0000 0.0000
22:53 8.9 6.5 85 234 1.7 3.3 1011.5 0.0000 0.0000
23:02 8.7 6.3 85 238 1.7 3.3 1011.6 0.0000 0.0000
23:13 8.5 6.1 85 238 1.7 3.3 1011.6 0.0000 0.0000
23:23 8.4 6 85 244 1.7 3.3 1011.6 0.0000 0.0000
23:33 8.1 5.7 85 247 1.9 3.3 1011.6 0.0000 0.0000
23:43 8 5.8 86 247 1.9 3.1 1011.6 0.0000 0.0000
23:53 7.8 5.6 86 254 1.9 3.3 1011.8 0.0000

DAY STATISTIC

2021-09-19
TEMPERATURE
AVERAGE
11.5
HIGH
14.7
15:29
LOW
7.8
23:53
PRESSURE
AVERAGE
1010.6
HIGH
1011.8
23:53
LOW
1009.8
04:23
DEWPOINT
AVERAGE
8.5
HIGH
9.7
00:32
LOW
5.6
23:53
HUMIDITY
AVERAGE
82
HIGH
93
00:32
LOW
68
13:28
WIND SPEED
AVERAGE
2.6
HIGH
3.6
16:00
WIND GUST
AVERAGE
4.4
HIGH
7.2
11:57
WIND DIRECTION
PREVAILING
W
83.9%
N
0.7
NE
0.0
E
0.0
SE
0.0
S
0.0
SW
7.7
W
83.9
NW
7.7
PRECIPITATION
RAIN HOUR
0.4
RAIN DAY
0.0
TEMPERATURE (°C)
LOW
7.8
HIGH
14.7
AVERAGE
11.5
PRESSURE (hpa)
LOW
1009.8
HIGH
1011.8
AVERAGE
1010.6
DEVICE